sensor_id;sensor_type;location;lat;lon;timestamp;P1;durP1;ratioP1;P2;durP2;ratioP2
23898;SDS011;20544;50.018;20.010;2022-12-08T00:02:34;5.83;;;3.33;;
23898;SDS011;20544;50.018;20.010;2022-12-08T00:05:52;7.05;;;3.70;;
23898;SDS011;20544;50.018;20.010;2022-12-08T00:09:23;5.80;;;3.63;;
23898;SDS011;20544;50.018;20.010;2022-12-08T00:12:45;7.13;;;3.70;;
23898;SDS011;20544;50.018;20.010;2022-12-08T00:16:03;6.10;;;3.33;;
23898;SDS011;20544;50.018;20.010;2022-12-08T00:19:21;5.95;;;3.90;;
23898;SDS011;20544;50.018;20.010;2022-12-08T00:22:39;4.93;;;3.40;;
23898;SDS011;20544;50.018;20.010;2022-12-08T00:25:55;5.10;;;3.30;;
23898;SDS011;20544;50.018;20.010;2022-12-08T00:29:17;5.95;;;3.43;;
23898;SDS011;20544;50.018;20.010;2022-12-08T00:32:33;4.43;;;3.20;;
23898;SDS011;20544;50.018;20.010;2022-12-08T00:35:50;5.20;;;3.50;;
23898;SDS011;20544;50.018;20.010;2022-12-08T00:39:08;5.28;;;3.25;;
23898;SDS011;20544;50.018;20.010;2022-12-08T00:42:27;4.48;;;2.98;;
23898;SDS011;20544;50.018;20.010;2022-12-08T00:45:43;4.48;;;2.98;;
23898;SDS011;20544;50.018;20.010;2022-12-08T00:49:00;4.78;;;3.00;;
23898;SDS011;20544;50.018;20.010;2022-12-08T00:52:17;4.43;;;3.23;;
23898;SDS011;20544;50.018;20.010;2022-12-08T00:55:35;5.90;;;3.43;;
23898;SDS011;20544;50.018;20.010;2022-12-08T00:58:51;5.80;;;3.40;;
23898;SDS011;20544;50.018;20.010;2022-12-08T01:02:08;4.40;;;3.05;;
23898;SDS011;20544;50.018;20.010;2022-12-08T01:05:24;4.25;;;3.08;;
23898;SDS011;20544;50.018;20.010;2022-12-08T01:08:42;4.48;;;3.30;;
23898;SDS011;20544;50.018;20.010;2022-12-08T01:11:59;4.83;;;3.23;;
23898;SDS011;20544;50.018;20.010;2022-12-08T01:15:15;5.38;;;3.75;;
23898;SDS011;20544;50.018;20.010;2022-12-08T01:18:32;5.63;;;3.45;;
23898;SDS011;20544;50.018;20.010;2022-12-08T01:21:49;5.55;;;3.50;;
23898;SDS011;20544;50.018;20.010;2022-12-08T01:25:05;3.65;;;2.93;;
23898;SDS011;20544;50.018;20.010;2022-12-08T01:28:23;4.53;;;3.48;;
23898;SDS011;20544;50.018;20.010;2022-12-08T01:31:43;5.68;;;3.25;;
23898;SDS011;20544;50.018;20.010;2022-12-08T01:35:00;5.28;;;3.48;;
23898;SDS011;20544;50.018;20.010;2022-12-08T01:38:17;5.53;;;3.50;;
23898;SDS011;20544;50.018;20.010;2022-12-08T01:41:35;5.55;;;3.70;;
23898;SDS011;20544;50.018;20.010;2022-12-08T01:44:56;6.20;;;3.63;;
23898;SDS011;20544;50.018;20.010;2022-12-08T01:48:19;5.20;;;3.60;;
23898;SDS011;20544;50.018;20.010;2022-12-08T01:51:40;6.48;;;3.50;;
23898;SDS011;20544;50.018;20.010;2022-12-08T01:55:01;4.43;;;3.45;;
23898;SDS011;20544;50.018;20.010;2022-12-08T01:58:23;4.25;;;3.15;;
23898;SDS011;20544;50.018;20.010;2022-12-08T02:01:43;5.30;;;3.58;;
23898;SDS011;20544;50.018;20.010;2022-12-08T02:05:02;5.33;;;3.65;;
23898;SDS011;20544;50.018;20.010;2022-12-08T02:08:20;4.08;;;3.30;;
23898;SDS011;20544;50.018;20.010;2022-12-08T02:11:37;5.73;;;3.60;;
23898;SDS011;20544;50.018;20.010;2022-12-08T02:14:53;5.13;;;3.50;;
23898;SDS011;20544;50.018;20.010;2022-12-08T02:18:18;5.75;;;3.58;;
23898;SDS011;20544;50.018;20.010;2022-12-08T02:21:53;5.18;;;3.70;;
23898;SDS011;20544;50.018;20.010;2022-12-08T02:25:17;6.08;;;3.83;;
23898;SDS011;20544;50.018;20.010;2022-12-08T02:28:41;5.05;;;3.68;;
23898;SDS011;20544;50.018;20.010;2022-12-08T02:32:32;4.98;;;3.90;;
23898;SDS011;20544;50.018;20.010;2022-12-08T02:36:13;6.15;;;4.18;;
23898;SDS011;20544;50.018;20.010;2022-12-08T02:39:37;5.05;;;3.75;;
23898;SDS011;20544;50.018;20.010;2022-12-08T02:43:01;4.93;;;3.63;;
23898;SDS011;20544;50.018;20.010;2022-12-08T02:46:23;4.43;;;3.68;;
23898;SDS011;20544;50.018;20.010;2022-12-08T02:49:45;4.85;;;3.65;;
23898;SDS011;20544;50.018;20.010;2022-12-08T02:53:02;6.35;;;3.60;;
23898;SDS011;20544;50.018;20.010;2022-12-08T02:56:21;6.28;;;3.90;;
23898;SDS011;20544;50.018;20.010;2022-12-08T03:03:15;4.85;;;3.70;;
23898;SDS011;20544;50.018;20.010;2022-12-08T03:06:41;5.48;;;4.35;;
23898;SDS011;20544;50.018;20.010;2022-12-08T03:10:04;6.13;;;4.23;;
23898;SDS011;20544;50.018;20.010;2022-12-08T03:13:28;5.63;;;4.03;;
23898;SDS011;20544;50.018;20.010;2022-12-08T03:16:50;5.03;;;3.83;;
23898;SDS011;20544;50.018;20.010;2022-12-08T03:20:12;6.15;;;4.15;;
23898;SDS011;20544;50.018;20.010;2022-12-08T03:23:34;5.08;;;4.35;;
23898;SDS011;20544;50.018;20.010;2022-12-08T03:30:12;5.25;;;4.00;;
23898;SDS011;20544;50.018;20.010;2022-12-08T03:33:29;6.53;;;4.63;;
23898;SDS011;20544;50.018;20.010;2022-12-08T03:36:51;5.50;;;4.48;;
23898;SDS011;20544;50.018;20.010;2022-12-08T03:40:09;5.95;;;4.50;;
23898;SDS011;20544;50.018;20.010;2022-12-08T03:43:30;5.58;;;4.10;;
23898;SDS011;20544;50.018;20.010;2022-12-08T03:46:46;4.80;;;3.70;;
23898;SDS011;20544;50.018;20.010;2022-12-08T03:50:03;6.35;;;4.33;;
23898;SDS011;20544;50.018;20.010;2022-12-08T03:53:22;5.63;;;4.18;;
23898;SDS011;20544;50.018;20.010;2022-12-08T03:56:39;7.33;;;4.80;;
23898;SDS011;20544;50.018;20.010;2022-12-08T03:59:56;5.65;;;4.40;;
23898;SDS011;20544;50.018;20.010;2022-12-08T04:03:16;5.93;;;4.43;;
23898;SDS011;20544;50.018;20.010;2022-12-08T04:06:35;5.73;;;4.10;;
23898;SDS011;20544;50.018;20.010;2022-12-08T04:09:52;5.75;;;4.60;;
23898;SDS011;20544;50.018;20.010;2022-12-08T04:13:10;8.15;;;4.60;;
23898;SDS011;20544;50.018;20.010;2022-12-08T04:16:27;6.35;;;4.50;;
23898;SDS011;20544;50.018;20.010;2022-12-08T04:19:43;5.03;;;4.20;;
23898;SDS011;20544;50.018;20.010;2022-12-08T04:22:59;6.55;;;4.40;;
23898;SDS011;20544;50.018;20.010;2022-12-08T04:26:17;6.18;;;4.38;;
23898;SDS011;20544;50.018;20.010;2022-12-08T04:29:33;6.85;;;4.53;;
23898;SDS011;20544;50.018;20.010;2022-12-08T04:32:49;8.73;;;4.60;;
23898;SDS011;20544;50.018;20.010;2022-12-08T04:36:08;6.60;;;4.33;;
23898;SDS011;20544;50.018;20.010;2022-12-08T04:39:25;5.23;;;3.90;;
23898;SDS011;20544;50.018;20.010;2022-12-08T04:42:42;6.40;;;4.30;;
23898;SDS011;20544;50.018;20.010;2022-12-08T04:46:00;5.65;;;4.15;;
23898;SDS011;20544;50.018;20.010;2022-12-08T04:49:19;5.23;;;3.93;;
23898;SDS011;20544;50.018;20.010;2022-12-08T04:52:36;5.98;;;4.43;;
23898;SDS011;20544;50.018;20.010;2022-12-08T04:55:53;7.08;;;4.30;;
23898;SDS011;20544;50.018;20.010;2022-12-08T04:59:10;6.25;;;4.10;;
23898;SDS011;20544;50.018;20.010;2022-12-08T05:02:27;6.68;;;4.70;;
23898;SDS011;20544;50.018;20.010;2022-12-08T05:05:44;7.60;;;4.60;;
23898;SDS011;20544;50.018;20.010;2022-12-08T05:09:00;7.35;;;4.80;;
23898;SDS011;20544;50.018;20.010;2022-12-08T05:12:17;6.50;;;5.05;;
23898;SDS011;20544;50.018;20.010;2022-12-08T05:15:34;7.88;;;4.60;;
23898;SDS011;20544;50.018;20.010;2022-12-08T05:18:53;7.83;;;4.65;;
23898;SDS011;20544;50.018;20.010;2022-12-08T05:22:12;6.28;;;4.33;;
23898;SDS011;20544;50.018;20.010;2022-12-08T05:25:30;7.43;;;4.40;;
23898;SDS011;20544;50.018;20.010;2022-12-08T05:28:50;5.68;;;4.18;;
23898;SDS011;20544;50.018;20.010;2022-12-08T05:32:07;7.48;;;4.85;;
23898;SDS011;20544;50.018;20.010;2022-12-08T05:35:24;6.08;;;4.50;;
23898;SDS011;20544;50.018;20.010;2022-12-08T05:38:41;6.95;;;4.98;;
23898;SDS011;20544;50.018;20.010;2022-12-08T05:41:59;6.98;;;4.35;;
23898;SDS011;20544;50.018;20.010;2022-12-08T05:45:16;6.00;;;4.45;;
23898;SDS011;20544;50.018;20.010;2022-12-08T05:48:33;7.05;;;4.63;;
23898;SDS011;20544;50.018;20.010;2022-12-08T05:51:52;6.35;;;4.80;;
23898;SDS011;20544;50.018;20.010;2022-12-08T05:55:10;7.73;;;4.48;;
23898;SDS011;20544;50.018;20.010;2022-12-08T05:58:27;4.75;;;4.23;;
23898;SDS011;20544;50.018;20.010;2022-12-08T06:01:43;6.45;;;4.60;;
23898;SDS011;20544;50.018;20.010;2022-12-08T06:05:00;7.20;;;5.35;;
23898;SDS011;20544;50.018;20.010;2022-12-08T06:08:17;7.83;;;4.60;;
23898;SDS011;20544;50.018;20.010;2022-12-08T06:11:34;6.88;;;4.75;;
23898;SDS011;20544;50.018;20.010;2022-12-08T06:14:53;7.03;;;5.27;;
23898;SDS011;20544;50.018;20.010;2022-12-08T06:18:09;8.68;;;5.10;;
23898;SDS011;20544;50.018;20.010;2022-12-08T06:21:26;8.45;;;5.40;;
23898;SDS011;20544;50.018;20.010;2022-12-08T06:24:43;7.45;;;4.98;;
23898;SDS011;20544;50.018;20.010;2022-12-08T06:28:06;7.03;;;4.73;;
23898;SDS011;20544;50.018;20.010;2022-12-08T06:31:30;7.78;;;5.08;;
23898;SDS011;20544;50.018;20.010;2022-12-08T06:34:46;7.93;;;5.23;;
23898;SDS011;20544;50.018;20.010;2022-12-08T06:38:04;9.03;;;4.85;;
23898;SDS011;20544;50.018;20.010;2022-12-08T06:41:20;7.78;;;4.63;;
23898;SDS011;20544;50.018;20.010;2022-12-08T06:44:37;10.40;;;5.45;;
23898;SDS011;20544;50.018;20.010;2022-12-08T06:47:54;6.88;;;4.85;;
23898;SDS011;20544;50.018;20.010;2022-12-08T06:51:11;7.80;;;5.00;;
23898;SDS011;20544;50.018;20.010;2022-12-08T06:54:32;8.20;;;5.00;;
23898;SDS011;20544;50.018;20.010;2022-12-08T06:57:48;8.05;;;5.00;;
23898;SDS011;20544;50.018;20.010;2022-12-08T07:01:06;9.30;;;5.80;;
23898;SDS011;20544;50.018;20.010;2022-12-08T07:07:45;8.95;;;5.25;;
23898;SDS011;20544;50.018;20.010;2022-12-08T07:11:07;8.73;;;5.58;;
23898;SDS011;20544;50.018;20.010;2022-12-08T07:14:27;9.33;;;5.28;;
23898;SDS011;20544;50.018;20.010;2022-12-08T07:17:43;8.08;;;5.40;;
23898;SDS011;20544;50.018;20.010;2022-12-08T07:21:09;12.17;;;5.97;;
23898;SDS011;20544;50.018;20.010;2022-12-08T07:24:26;7.13;;;5.40;;
23898;SDS011;20544;50.018;20.010;2022-12-08T07:27:43;9.48;;;5.55;;
23898;SDS011;20544;50.018;20.010;2022-12-08T07:31:00;10.08;;;5.95;;
23898;SDS011;20544;50.018;20.010;2022-12-08T07:34:17;9.85;;;5.73;;
23898;SDS011;20544;50.018;20.010;2022-12-08T07:37:34;10.03;;;6.50;;
23898;SDS011;20544;50.018;20.010;2022-12-08T07:40:51;10.20;;;5.75;;
23898;SDS011;20544;50.018;20.010;2022-12-08T07:44:09;11.38;;;6.40;;
23898;SDS011;20544;50.018;20.010;2022-12-08T07:47:26;11.15;;;6.33;;
23898;SDS011;20544;50.018;20.010;2022-12-08T07:50:42;13.50;;;6.83;;
23898;SDS011;20544;50.018;20.010;2022-12-08T07:53:59;10.05;;;6.68;;
23898;SDS011;20544;50.018;20.010;2022-12-08T07:57:16;12.00;;;7.15;;
23898;SDS011;20544;50.018;20.010;2022-12-08T08:00:33;11.63;;;6.20;;
23898;SDS011;20544;50.018;20.010;2022-12-08T08:03:50;10.53;;;6.88;;
23898;SDS011;20544;50.018;20.010;2022-12-08T08:07:10;9.55;;;6.03;;
23898;SDS011;20544;50.018;20.010;2022-12-08T08:10:26;12.50;;;5.88;;
23898;SDS011;20544;50.018;20.010;2022-12-08T08:13:42;11.85;;;6.33;;
23898;SDS011;20544;50.018;20.010;2022-12-08T08:16:58;10.63;;;6.15;;
23898;SDS011;20544;50.018;20.010;2022-12-08T08:20:15;11.35;;;6.05;;
23898;SDS011;20544;50.018;20.010;2022-12-08T08:23:33;11.95;;;6.38;;
23898;SDS011;20544;50.018;20.010;2022-12-08T08:26:49;8.45;;;5.15;;
23898;SDS011;20544;50.018;20.010;2022-12-08T08:30:08;9.93;;;5.83;;
23898;SDS011;20544;50.018;20.010;2022-12-08T08:33:26;10.85;;;5.88;;
23898;SDS011;20544;50.018;20.010;2022-12-08T08:36:43;9.28;;;5.58;;
23898;SDS011;20544;50.018;20.010;2022-12-08T08:39:59;7.75;;;5.28;;
23898;SDS011;20544;50.018;20.010;2022-12-08T08:43:16;7.73;;;4.90;;
23898;SDS011;20544;50.018;20.010;2022-12-08T08:46:41;7.65;;;5.58;;
23898;SDS011;20544;50.018;20.010;2022-12-08T08:49:59;9.55;;;5.63;;
23898;SDS011;20544;50.018;20.010;2022-12-08T08:53:18;8.68;;;5.90;;
23898;SDS011;20544;50.018;20.010;2022-12-08T08:56:35;8.78;;;5.78;;
23898;SDS011;20544;50.018;20.010;2022-12-08T08:59:54;9.30;;;6.33;;
23898;SDS011;20544;50.018;20.010;2022-12-08T09:03:11;10.18;;;6.08;;
23898;SDS011;20544;50.018;20.010;2022-12-08T09:06:30;11.08;;;7.65;;
23898;SDS011;20544;50.018;20.010;2022-12-08T09:09:51;12.58;;;7.68;;
23898;SDS011;20544;50.018;20.010;2022-12-08T09:13:09;11.35;;;7.15;;
23898;SDS011;20544;50.018;20.010;2022-12-08T09:16:29;11.85;;;7.95;;
23898;SDS011;20544;50.018;20.010;2022-12-08T09:19:57;12.68;;;7.30;;
23898;SDS011;20544;50.018;20.010;2022-12-08T09:23:31;10.88;;;7.40;;
23898;SDS011;20544;50.018;20.010;2022-12-08T09:26:49;12.47;;;7.90;;
23898;SDS011;20544;50.018;20.010;2022-12-08T09:30:07;12.50;;;7.98;;
23898;SDS011;20544;50.018;20.010;2022-12-08T09:33:24;10.50;;;7.83;;
23898;SDS011;20544;50.018;20.010;2022-12-08T09:36:40;11.95;;;7.93;;
23898;SDS011;20544;50.018;20.010;2022-12-08T09:39:56;10.68;;;7.60;;
23898;SDS011;20544;50.018;20.010;2022-12-08T09:43:17;12.78;;;7.60;;
23898;SDS011;20544;50.018;20.010;2022-12-08T09:46:44;10.78;;;7.43;;
23898;SDS011;20544;50.018;20.010;2022-12-08T09:50:10;11.15;;;7.58;;
23898;SDS011;20544;50.018;20.010;2022-12-08T09:53:31;10.43;;;7.50;;
23898;SDS011;20544;50.018;20.010;2022-12-08T09:56:54;16.25;;;10.20;;
23898;SDS011;20544;50.018;20.010;2022-12-08T10:03:33;11.28;;;7.80;;
23898;SDS011;20544;50.018;20.010;2022-12-08T10:06:50;10.73;;;7.20;;
23898;SDS011;20544;50.018;20.010;2022-12-08T10:10:20;13.40;;;7.78;;
23898;SDS011;20544;50.018;20.010;2022-12-08T10:13:44;14.25;;;7.95;;
23898;SDS011;20544;50.018;20.010;2022-12-08T10:17:04;13.30;;;8.03;;
23898;SDS011;20544;50.018;20.010;2022-12-08T10:20:26;10.90;;;7.80;;
23898;SDS011;20544;50.018;20.010;2022-12-08T10:23:49;12.95;;;8.15;;
23898;SDS011;20544;50.018;20.010;2022-12-08T10:27:11;12.33;;;8.03;;
23898;SDS011;20544;50.018;20.010;2022-12-08T10:30:31;10.80;;;7.33;;
23898;SDS011;20544;50.018;20.010;2022-12-08T10:33:48;12.70;;;8.23;;
23898;SDS011;20544;50.018;20.010;2022-12-08T10:37:09;12.10;;;8.25;;
23898;SDS011;20544;50.018;20.010;2022-12-08T10:40:28;10.88;;;7.73;;
23898;SDS011;20544;50.018;20.010;2022-12-08T10:43:49;13.73;;;8.23;;
23898;SDS011;20544;50.018;20.010;2022-12-08T10:47:13;12.30;;;8.53;;
23898;SDS011;20544;50.018;20.010;2022-12-08T10:50:32;11.68;;;7.75;;
23898;SDS011;20544;50.018;20.010;2022-12-08T10:53:54;12.35;;;8.80;;
23898;SDS011;20544;50.018;20.010;2022-12-08T10:57:15;13.05;;;8.63;;
23898;SDS011;20544;50.018;20.010;2022-12-08T11:00:36;12.95;;;8.28;;
23898;SDS011;20544;50.018;20.010;2022-12-08T11:03:55;11.63;;;7.40;;
23898;SDS011;20544;50.018;20.010;2022-12-08T11:07:18;12.08;;;7.73;;
23898;SDS011;20544;50.018;20.010;2022-12-08T11:10:36;11.58;;;7.28;;
23898;SDS011;20544;50.018;20.010;2022-12-08T11:13:58;14.15;;;9.28;;
23898;SDS011;20544;50.018;20.010;2022-12-08T11:17:27;16.50;;;10.20;;
23898;SDS011;20544;50.018;20.010;2022-12-08T11:20:56;13.23;;;8.20;;
23898;SDS011;20544;50.018;20.010;2022-12-08T11:24:21;11.40;;;7.73;;
23898;SDS011;20544;50.018;20.010;2022-12-08T11:27:42;9.80;;;7.33;;
23898;SDS011;20544;50.018;20.010;2022-12-08T11:31:05;10.85;;;7.23;;
23898;SDS011;20544;50.018;20.010;2022-12-08T11:34:29;13.68;;;8.45;;
23898;SDS011;20544;50.018;20.010;2022-12-08T11:37:48;12.88;;;8.68;;
23898;SDS011;20544;50.018;20.010;2022-12-08T11:41:13;10.30;;;8.45;;
23898;SDS011;20544;50.018;20.010;2022-12-08T11:44:34;12.25;;;8.73;;
23898;SDS011;20544;50.018;20.010;2022-12-08T11:47:54;12.45;;;8.75;;
23898;SDS011;20544;50.018;20.010;2022-12-08T11:51:18;12.05;;;8.35;;
23898;SDS011;20544;50.018;20.010;2022-12-08T11:54:41;14.05;;;8.50;;
23898;SDS011;20544;50.018;20.010;2022-12-08T11:58:03;11.95;;;8.03;;
23898;SDS011;20544;50.018;20.010;2022-12-08T12:01:25;13.68;;;8.55;;
23898;SDS011;20544;50.018;20.010;2022-12-08T12:04:48;11.55;;;8.65;;
23898;SDS011;20544;50.018;20.010;2022-12-08T12:08:14;13.93;;;9.18;;
23898;SDS011;20544;50.018;20.010;2022-12-08T12:11:39;14.90;;;9.55;;
23898;SDS011;20544;50.018;20.010;2022-12-08T12:15:24;17.03;;;10.03;;
23898;SDS011;20544;50.018;20.010;2022-12-08T12:18:59;14.18;;;9.60;;
23898;SDS011;20544;50.018;20.010;2022-12-08T12:22:19;15.95;;;9.53;;
23898;SDS011;20544;50.018;20.010;2022-12-08T12:25:37;13.35;;;9.30;;
23898;SDS011;20544;50.018;20.010;2022-12-08T12:28:59;14.43;;;8.98;;
23898;SDS011;20544;50.018;20.010;2022-12-08T12:32:20;14.85;;;9.23;;
23898;SDS011;20544;50.018;20.010;2022-12-08T12:35:39;14.18;;;9.13;;
23898;SDS011;20544;50.018;20.010;2022-12-08T12:38:58;11.93;;;8.85;;
23898;SDS011;20544;50.018;20.010;2022-12-08T12:45:53;12.70;;;8.73;;
23898;SDS011;20544;50.018;20.010;2022-12-08T12:57:19;13.83;;;9.35;;
23898;SDS011;20544;50.018;20.010;2022-12-08T13:00:40;13.73;;;9.13;;
23898;SDS011;20544;50.018;20.010;2022-12-08T13:04:02;13.68;;;9.48;;
23898;SDS011;20544;50.018;20.010;2022-12-08T13:07:22;14.95;;;9.95;;
23898;SDS011;20544;50.018;20.010;2022-12-08T13:10:46;15.58;;;8.53;;
23898;SDS011;20544;50.018;20.010;2022-12-08T13:14:15;12.75;;;8.93;;
23898;SDS011;20544;50.018;20.010;2022-12-08T13:17:44;12.25;;;8.88;;
23898;SDS011;20544;50.018;20.010;2022-12-08T13:21:03;16.65;;;9.50;;
23898;SDS011;20544;50.018;20.010;2022-12-08T13:24:33;13.03;;;9.90;;
23898;SDS011;20544;50.018;20.010;2022-12-08T13:27:54;15.65;;;9.15;;
23898;SDS011;20544;50.018;20.010;2022-12-08T13:31:19;16.33;;;9.98;;
23898;SDS011;20544;50.018;20.010;2022-12-08T13:34:52;16.83;;;10.55;;
23898;SDS011;20544;50.018;20.010;2022-12-08T13:38:13;15.93;;;10.68;;
23898;SDS011;20544;50.018;20.010;2022-12-08T13:41:36;15.98;;;10.45;;
23898;SDS011;20544;50.018;20.010;2022-12-08T13:44:57;13.55;;;10.10;;
23898;SDS011;20544;50.018;20.010;2022-12-08T13:48:23;13.23;;;9.33;;
23898;SDS011;20544;50.018;20.010;2022-12-08T13:55:14;12.90;;;9.00;;
23898;SDS011;20544;50.018;20.010;2022-12-08T13:58:38;10.20;;;8.40;;
23898;SDS011;20544;50.018;20.010;2022-12-08T14:02:00;13.38;;;8.50;;
23898;SDS011;20544;50.018;20.010;2022-12-08T14:05:24;12.48;;;8.00;;
23898;SDS011;20544;50.018;20.010;2022-12-08T14:08:53;11.03;;;7.88;;
23898;SDS011;20544;50.018;20.010;2022-12-08T14:12:17;12.48;;;8.85;;
23898;SDS011;20544;50.018;20.010;2022-12-08T14:15:36;12.60;;;7.95;;
23898;SDS011;20544;50.018;20.010;2022-12-08T14:18:53;8.83;;;7.25;;
23898;SDS011;20544;50.018;20.010;2022-12-08T14:22:16;11.93;;;8.85;;
23898;SDS011;20544;50.018;20.010;2022-12-08T14:25:32;13.33;;;9.90;;
23898;SDS011;20544;50.018;20.010;2022-12-08T14:28:51;13.55;;;9.65;;
23898;SDS011;20544;50.018;20.010;2022-12-08T14:32:17;13.78;;;10.08;;
23898;SDS011;20544;50.018;20.010;2022-12-08T14:35:41;13.50;;;9.13;;
23898;SDS011;20544;50.018;20.010;2022-12-08T14:39:02;12.95;;;9.25;;
23898;SDS011;20544;50.018;20.010;2022-12-08T14:42:21;12.95;;;9.35;;
23898;SDS011;20544;50.018;20.010;2022-12-08T14:45:49;12.65;;;9.10;;
23898;SDS011;20544;50.018;20.010;2022-12-08T14:52:49;13.00;;;9.08;;
23898;SDS011;20544;50.018;20.010;2022-12-08T14:56:11;15.55;;;9.88;;
23898;SDS011;20544;50.018;20.010;2022-12-08T14:59:34;20.38;;;11.20;;
23898;SDS011;20544;50.018;20.010;2022-12-08T15:02:52;18.45;;;11.45;;
23898;SDS011;20544;50.018;20.010;2022-12-08T15:06:11;16.93;;;12.43;;
23898;SDS011;20544;50.018;20.010;2022-12-08T15:09:29;18.58;;;13.50;;
23898;SDS011;20544;50.018;20.010;2022-12-08T15:13:00;19.00;;;12.43;;
23898;SDS011;20544;50.018;20.010;2022-12-08T15:16:37;19.45;;;13.28;;
23898;SDS011;20544;50.018;20.010;2022-12-08T15:19:55;19.73;;;13.20;;
23898;SDS011;20544;50.018;20.010;2022-12-08T15:23:18;18.20;;;12.43;;
23898;SDS011;20544;50.018;20.010;2022-12-08T15:26:39;17.98;;;11.98;;
23898;SDS011;20544;50.018;20.010;2022-12-08T15:29:59;17.63;;;12.78;;
23898;SDS011;20544;50.018;20.010;2022-12-08T15:33:17;18.65;;;12.80;;
23898;SDS011;20544;50.018;20.010;2022-12-08T15:36:34;17.10;;;12.40;;
23898;SDS011;20544;50.018;20.010;2022-12-08T15:39:51;17.85;;;13.43;;
23898;SDS011;20544;50.018;20.010;2022-12-08T15:43:09;19.78;;;13.00;;
23898;SDS011;20544;50.018;20.010;2022-12-08T15:46:26;20.40;;;13.45;;
23898;SDS011;20544;50.018;20.010;2022-12-08T15:49:42;21.38;;;14.20;;
23898;SDS011;20544;50.018;20.010;2022-12-08T15:53:01;22.88;;;15.73;;
23898;SDS011;20544;50.018;20.010;2022-12-08T15:56:19;20.43;;;14.80;;
23898;SDS011;20544;50.018;20.010;2022-12-08T15:59:35;20.98;;;15.20;;
23898;SDS011;20544;50.018;20.010;2022-12-08T16:02:51;22.70;;;14.80;;
23898;SDS011;20544;50.018;20.010;2022-12-08T16:06:14;95.05;;;56.85;;
23898;SDS011;20544;50.018;20.010;2022-12-08T16:09:44;29.35;;;17.70;;
23898;SDS011;20544;50.018;20.010;2022-12-08T16:13:02;22.73;;;16.30;;
23898;SDS011;20544;50.018;20.010;2022-12-08T16:16:41;27.43;;;17.17;;
23898;SDS011;20544;50.018;20.010;2022-12-08T16:19:57;24.18;;;16.75;;
23898;SDS011;20544;50.018;20.010;2022-12-08T16:23:15;20.73;;;15.68;;
23898;SDS011;20544;50.018;20.010;2022-12-08T16:26:36;24.60;;;15.30;;
23898;SDS011;20544;50.018;20.010;2022-12-08T16:29:54;19.80;;;13.75;;
23898;SDS011;20544;50.018;20.010;2022-12-08T16:33:12;19.45;;;12.90;;
23898;SDS011;20544;50.018;20.010;2022-12-08T16:36:28;18.50;;;11.70;;
23898;SDS011;20544;50.018;20.010;2022-12-08T16:39:44;17.93;;;13.03;;
23898;SDS011;20544;50.018;20.010;2022-12-08T16:43:02;20.35;;;13.63;;
23898;SDS011;20544;50.018;20.010;2022-12-08T16:46:19;21.98;;;14.43;;
23898;SDS011;20544;50.018;20.010;2022-12-08T16:49:37;23.63;;;14.90;;
23898;SDS011;20544;50.018;20.010;2022-12-08T16:52:56;21.90;;;14.35;;
23898;SDS011;20544;50.018;20.010;2022-12-08T16:56:15;20.50;;;13.70;;
23898;SDS011;20544;50.018;20.010;2022-12-08T16:59:35;24.00;;;15.23;;
23898;SDS011;20544;50.018;20.010;2022-12-08T17:02:52;26.68;;;15.53;;
23898;SDS011;20544;50.018;20.010;2022-12-08T17:06:10;30.70;;;20.45;;
23898;SDS011;20544;50.018;20.010;2022-12-08T17:12:44;47.55;;;29.85;;
23898;SDS011;20544;50.018;20.010;2022-12-08T17:16:02;51.98;;;30.43;;
23898;SDS011;20544;50.018;20.010;2022-12-08T17:19:25;40.00;;;26.35;;
23898;SDS011;20544;50.018;20.010;2022-12-08T17:22:43;30.08;;;18.00;;
23898;SDS011;20544;50.018;20.010;2022-12-08T17:26:00;52.65;;;31.18;;
23898;SDS011;20544;50.018;20.010;2022-12-08T17:29:18;31.28;;;18.58;;
23898;SDS011;20544;50.018;20.010;2022-12-08T17:32:35;28.80;;;17.83;;
23898;SDS011;20544;50.018;20.010;2022-12-08T17:35:53;28.40;;;18.25;;
23898;SDS011;20544;50.018;20.010;2022-12-08T17:39:09;26.45;;;17.40;;
23898;SDS011;20544;50.018;20.010;2022-12-08T17:42:30;27.50;;;17.48;;
23898;SDS011;20544;50.018;20.010;2022-12-08T17:45:46;31.35;;;20.23;;
23898;SDS011;20544;50.018;20.010;2022-12-08T17:49:03;32.33;;;22.13;;
23898;SDS011;20544;50.018;20.010;2022-12-08T17:52:26;50.18;;;32.88;;
23898;SDS011;20544;50.018;20.010;2022-12-08T17:55:46;55.78;;;34.70;;
23898;SDS011;20544;50.018;20.010;2022-12-08T17:59:06;56.53;;;33.38;;
23898;SDS011;20544;50.018;20.010;2022-12-08T18:02:23;48.60;;;29.53;;
23898;SDS011;20544;50.018;20.010;2022-12-08T18:05:42;52.23;;;32.63;;
23898;SDS011;20544;50.018;20.010;2022-12-08T18:09:01;49.33;;;28.65;;
23898;SDS011;20544;50.018;20.010;2022-12-08T18:12:18;42.58;;;24.88;;
23898;SDS011;20544;50.018;20.010;2022-12-08T18:15:35;46.40;;;28.65;;
23898;SDS011;20544;50.018;20.010;2022-12-08T18:18:52;58.98;;;36.53;;
23898;SDS011;20544;50.018;20.010;2022-12-08T18:22:09;60.58;;;36.25;;
23898;SDS011;20544;50.018;20.010;2022-12-08T18:25:25;57.85;;;33.95;;
23898;SDS011;20544;50.018;20.010;2022-12-08T18:28:41;50.93;;;31.65;;
23898;SDS011;20544;50.018;20.010;2022-12-08T18:32:00;48.83;;;27.35;;
23898;SDS011;20544;50.018;20.010;2022-12-08T18:35:18;41.20;;;24.98;;
23898;SDS011;20544;50.018;20.010;2022-12-08T18:38:35;33.45;;;20.85;;
23898;SDS011;20544;50.018;20.010;2022-12-08T18:41:51;29.58;;;18.08;;
23898;SDS011;20544;50.018;20.010;2022-12-08T18:45:11;27.60;;;17.08;;
23898;SDS011;20544;50.018;20.010;2022-12-08T18:52:01;22.58;;;14.15;;
23898;SDS011;20544;50.018;20.010;2022-12-08T18:55:17;26.15;;;15.38;;
23898;SDS011;20544;50.018;20.010;2022-12-08T18:58:34;23.23;;;14.30;;
23898;SDS011;20544;50.018;20.010;2022-12-08T19:01:54;21.05;;;12.58;;
23898;SDS011;20544;50.018;20.010;2022-12-08T19:08:27;17.45;;;11.43;;
23898;SDS011;20544;50.018;20.010;2022-12-08T19:11:43;18.28;;;11.58;;
23898;SDS011;20544;50.018;20.010;2022-12-08T19:15:00;18.33;;;11.70;;
23898;SDS011;20544;50.018;20.010;2022-12-08T19:18:17;19.68;;;12.03;;
23898;SDS011;20544;50.018;20.010;2022-12-08T19:21:33;23.55;;;14.18;;
23898;SDS011;20544;50.018;20.010;2022-12-08T19:24:52;21.85;;;13.90;;
23898;SDS011;20544;50.018;20.010;2022-12-08T19:28:08;27.20;;;14.63;;
23898;SDS011;20544;50.018;20.010;2022-12-08T19:31:24;24.58;;;15.58;;
23898;SDS011;20544;50.018;20.010;2022-12-08T19:34:41;26.90;;;16.58;;
23898;SDS011;20544;50.018;20.010;2022-12-08T19:37:57;28.03;;;17.60;;
23898;SDS011;20544;50.018;20.010;2022-12-08T19:41:14;25.53;;;16.58;;
23898;SDS011;20544;50.018;20.010;2022-12-08T19:44:45;27.43;;;17.78;;
23898;SDS011;20544;50.018;20.010;2022-12-08T19:48:29;30.90;;;18.80;;
23898;SDS011;20544;50.018;20.010;2022-12-08T19:51:45;31.05;;;18.75;;
23898;SDS011;20544;50.018;20.010;2022-12-08T19:55:02;29.40;;;17.43;;
23898;SDS011;20544;50.018;20.010;2022-12-08T19:58:19;30.23;;;18.33;;
23898;SDS011;20544;50.018;20.010;2022-12-08T20:01:35;30.68;;;18.58;;
23898;SDS011;20544;50.018;20.010;2022-12-08T20:04:54;30.40;;;19.50;;
23898;SDS011;20544;50.018;20.010;2022-12-08T20:08:10;30.00;;;19.45;;
23898;SDS011;20544;50.018;20.010;2022-12-08T20:11:29;29.80;;;18.98;;
23898;SDS011;20544;50.018;20.010;2022-12-08T20:14:45;29.68;;;18.50;;